createdAt,value
2023-01-10T00:00:01.676Z,986.88
2023-01-10T00:01:01.667Z,986.94
2023-01-10T00:02:01.673Z,986.99
2023-01-10T00:03:01.697Z,986.97
2023-01-10T00:04:01.652Z,986.95
2023-01-10T00:05:01.661Z,986.91
2023-01-10T00:06:01.619Z,986.91
2023-01-10T00:07:01.611Z,986.95
2023-01-10T00:08:01.611Z,987.01
2023-01-10T00:09:01.617Z,987.17
2023-01-10T00:10:01.612Z,986.96
2023-01-10T00:11:01.560Z,987.05
2023-01-10T00:12:01.555Z,986.97
2023-01-10T00:13:01.548Z,986.93
2023-01-10T00:14:01.553Z,986.99
2023-01-10T00:15:01.524Z,987.08
2023-01-10T00:16:01.551Z,987.02
2023-01-10T00:17:01.514Z,987.03
2023-01-10T00:18:01.493Z,987.11
2023-01-10T00:19:01.494Z,987.14
2023-01-10T00:20:01.465Z,987.12
2023-01-10T00:21:01.453Z,987.10
2023-01-10T00:22:01.447Z,987.09
2023-01-10T00:23:01.448Z,987.20
2023-01-10T00:24:01.438Z,987.15
2023-01-10T00:25:01.413Z,987.06
2023-01-10T00:26:01.412Z,987.06
2023-01-10T00:27:01.394Z,987.13
2023-01-10T00:28:01.382Z,987.20
2023-01-10T00:29:01.371Z,987.29
2023-01-10T00:30:01.401Z,987.30
2023-01-10T00:31:01.633Z,987.39
2023-01-10T00:32:01.349Z,987.30
2023-01-10T00:33:01.351Z,987.40
2023-01-10T00:34:01.345Z,987.39
2023-01-10T00:35:01.332Z,987.39
2023-01-10T00:36:01.302Z,987.48
2023-01-10T00:37:01.292Z,987.35
2023-01-10T00:38:01.283Z,987.34
2023-01-10T00:39:01.282Z,987.41
2023-01-10T00:40:01.271Z,987.42
2023-01-10T00:41:01.258Z,987.42
2023-01-10T00:42:01.245Z,987.41
2023-01-10T00:43:01.230Z,987.45
2023-01-10T00:44:01.220Z,987.44
2023-01-10T00:45:01.229Z,987.42
2023-01-10T00:46:01.240Z,987.49
2023-01-10T00:47:01.193Z,987.52
2023-01-10T00:48:01.191Z,987.49
2023-01-10T00:49:01.172Z,987.54
2023-01-10T00:50:01.180Z,987.55
2023-01-10T00:51:01.151Z,987.57
2023-01-10T00:52:01.136Z,987.57
2023-01-10T00:53:01.137Z,987.56
2023-01-10T00:54:01.121Z,987.58
2023-01-10T00:55:01.133Z,987.55
2023-01-10T00:56:01.101Z,987.56
2023-01-10T00:57:01.098Z,987.61
2023-01-10T00:58:01.077Z,987.64
2023-01-10T00:59:01.076Z,987.77
2023-01-10T01:00:01.087Z,987.66
2023-01-10T01:01:01.134Z,987.73
2023-01-10T01:02:01.083Z,987.77
2023-01-10T01:03:01.088Z,987.82
2023-01-10T01:04:01.017Z,987.84
2023-01-10T01:05:01.032Z,987.89
2023-01-10T01:06:00.998Z,987.87
2023-01-10T01:07:01.003Z,987.92
2023-01-10T01:08:00.982Z,987.95
2023-01-10T01:09:00.978Z,987.95
2023-01-10T01:10:00.971Z,987.98
2023-01-10T01:11:00.962Z,987.95
2023-01-10T01:12:00.942Z,988.01
2023-01-10T01:13:00.943Z,987.99
2023-01-10T01:14:00.916Z,988.10
2023-01-10T01:15:00.933Z,988.08
2023-01-10T01:16:01.005Z,988.15
2023-01-10T01:17:00.887Z,988.12
2023-01-10T01:18:00.872Z,988.30
2023-01-10T01:19:00.873Z,988.18
2023-01-10T01:20:00.875Z,988.21
2023-01-10T01:21:00.842Z,988.23
2023-01-10T01:22:00.829Z,988.21
2023-01-10T01:23:00.823Z,988.27
2023-01-10T01:24:00.807Z,988.26
2023-01-10T01:25:00.813Z,988.44
2023-01-10T01:26:00.784Z,988.39
2023-01-10T01:27:00.788Z,988.37
2023-01-10T01:28:00.763Z,988.44
2023-01-10T01:29:00.766Z,988.35
2023-01-10T01:30:00.756Z,988.37
2023-01-10T01:31:00.781Z,988.47
2023-01-10T01:32:00.724Z,988.50
2023-01-10T01:33:00.716Z,988.54
2023-01-10T01:34:00.711Z,988.50
2023-01-10T01:35:00.710Z,988.53
2023-01-10T01:36:00.686Z,988.58
2023-01-10T01:37:00.679Z,988.54
2023-01-10T01:38:00.666Z,988.70
2023-01-10T01:39:00.667Z,988.74
2023-01-10T01:40:00.702Z,988.71
2023-01-10T01:41:00.634Z,988.65
2023-01-10T01:42:00.622Z,988.66
2023-01-10T01:43:00.622Z,988.76
2023-01-10T01:44:00.620Z,988.76
2023-01-10T01:45:00.618Z,988.75
2023-01-10T01:46:00.610Z,988.73
2023-01-10T01:47:00.584Z,988.77
2023-01-10T01:48:00.562Z,988.78
2023-01-10T01:49:00.550Z,988.76
2023-01-10T01:50:00.541Z,988.71
2023-01-10T01:51:00.543Z,988.72
2023-01-10T01:52:00.519Z,988.75
2023-01-10T01:53:00.510Z,988.83
2023-01-10T01:54:00.497Z,988.82
2023-01-10T01:55:00.492Z,988.80
2023-01-10T01:56:00.504Z,988.91
2023-01-10T01:57:00.469Z,988.90
2023-01-10T01:58:00.452Z,988.95
2023-01-10T01:59:00.467Z,988.97
2023-01-10T02:00:00.435Z,989.04
2023-01-10T02:01:00.469Z,988.96
2023-01-10T02:02:00.483Z,989.02
2023-01-10T02:03:02.985Z,989.02
2023-01-10T02:04:00.452Z,989.00
2023-01-10T02:05:00.384Z,988.99
2023-01-10T02:06:00.389Z,989.12
2023-01-10T02:07:00.364Z,989.14
2023-01-10T02:08:00.350Z,989.09
2023-01-10T02:09:00.343Z,989.13
2023-01-10T02:10:00.338Z,989.16
2023-01-10T02:11:00.330Z,989.19
2023-01-10T02:12:00.312Z,989.18
2023-01-10T02:13:00.299Z,989.22
2023-01-10T02:14:00.291Z,989.19
2023-01-10T02:15:00.291Z,989.29
2023-01-10T02:16:00.338Z,989.23
2023-01-10T02:17:00.249Z,989.25
2023-01-10T02:18:00.251Z,989.30
2023-01-10T02:19:00.257Z,989.26
2023-01-10T02:20:00.230Z,989.23
2023-01-10T02:21:00.227Z,989.26
2023-01-10T02:22:00.207Z,989.24
2023-01-10T02:23:00.194Z,989.37
2023-01-10T02:24:00.196Z,989.32
2023-01-10T02:25:00.200Z,989.27
2023-01-10T02:26:00.185Z,989.42
2023-01-10T02:27:00.153Z,989.37
2023-01-10T02:28:00.145Z,989.33
2023-01-10T02:29:00.142Z,989.39
2023-01-10T02:30:00.161Z,989.40
2023-01-10T02:31:00.243Z,989.44
2023-01-10T02:32:00.160Z,989.53
2023-01-10T02:33:05.049Z,989.51
2023-01-10T02:34:01.082Z,989.51
2023-01-10T02:35:00.089Z,989.56
2023-01-10T02:36:00.108Z,989.57
2023-01-10T02:37:00.062Z,989.56
2023-01-10T02:38:00.085Z,989.72
2023-01-10T02:39:00.031Z,989.71
2023-01-10T02:40:00.043Z,989.68
2023-01-10T02:41:00.023Z,989.72
2023-01-10T02:42:00.003Z,989.81
2023-01-10T02:42:59.994Z,989.72
2023-01-10T02:43:59.976Z,989.78
2023-01-10T02:44:59.969Z,989.87
2023-01-10T02:45:59.976Z,989.82
2023-01-10T02:46:59.961Z,989.81
2023-01-10T02:47:59.946Z,989.86
2023-01-10T02:48:59.936Z,989.92
2023-01-10T02:49:59.920Z,989.85
2023-01-10T02:50:59.925Z,989.80
2023-01-10T02:51:59.907Z,989.81
2023-01-10T02:53:01.115Z,989.88
2023-01-10T02:54:01.058Z,989.92
2023-01-10T02:55:01.096Z,989.88
2023-01-10T02:56:01.091Z,989.90
2023-01-10T02:57:01.100Z,989.97
2023-01-10T02:58:01.053Z,989.82
2023-01-10T02:59:01.064Z,989.90
2023-01-10T03:00:00.998Z,989.98
2023-01-10T03:01:01.054Z,990.01
2023-01-10T03:02:01.114Z,989.93
2023-01-10T03:03:01.003Z,989.96
2023-01-10T03:04:01.018Z,990.13
2023-01-10T03:05:00.995Z,990.00
2023-01-10T03:06:00.992Z,990.15
2023-01-10T03:07:00.982Z,990.13
2023-01-10T03:08:00.956Z,990.12
2023-01-10T03:09:00.927Z,990.22
2023-01-10T03:10:00.927Z,990.31
2023-01-10T03:11:00.947Z,990.14
2023-01-10T03:12:00.936Z,990.21
2023-01-10T03:13:00.883Z,990.10
2023-01-10T03:14:00.895Z,990.15
2023-01-10T03:15:00.882Z,990.17
2023-01-10T03:16:01.020Z,990.23
2023-01-10T03:17:00.888Z,990.16
2023-01-10T03:18:00.853Z,990.16
2023-01-10T03:19:00.881Z,990.17
2023-01-10T03:20:01.035Z,990.15
2023-01-10T03:21:00.813Z,990.20
2023-01-10T03:22:00.837Z,990.17
2023-01-10T03:23:00.843Z,990.13
2023-01-10T03:24:00.843Z,990.20
2023-01-10T03:25:00.810Z,990.23
2023-01-10T03:26:00.747Z,990.31
2023-01-10T03:27:00.771Z,990.25
2023-01-10T03:28:00.786Z,990.32
2023-01-10T03:29:00.757Z,990.36
2023-01-10T03:30:00.804Z,990.35
2023-01-10T03:31:00.799Z,990.44
2023-01-10T03:32:00.737Z,990.40
2023-01-10T03:33:00.710Z,990.39
2023-01-10T03:34:00.714Z,990.43
2023-01-10T03:35:00.657Z,990.50
2023-01-10T03:36:00.688Z,990.44
2023-01-10T03:37:00.685Z,990.53
2023-01-10T03:38:00.654Z,990.59
2023-01-10T03:39:00.644Z,990.58
2023-01-10T03:40:00.664Z,990.54
2023-01-10T03:41:00.711Z,990.61
2023-01-10T03:42:00.595Z,990.69
2023-01-10T03:43:00.622Z,990.65
2023-01-10T03:44:00.609Z,990.80
2023-01-10T03:45:00.593Z,990.77
2023-01-10T03:46:00.594Z,990.76
2023-01-10T03:47:00.583Z,990.89
2023-01-10T03:48:00.604Z,990.86
2023-01-10T03:49:00.565Z,990.91
2023-01-10T03:50:00.551Z,990.97
2023-01-10T03:51:00.536Z,991.00
2023-01-10T03:52:00.547Z,990.94
2023-01-10T03:53:00.520Z,990.93
2023-01-10T03:54:00.542Z,991.03
2023-01-10T03:55:00.499Z,990.92
2023-01-10T03:56:00.494Z,990.97
2023-01-10T03:57:02.656Z,991.03
2023-01-10T03:58:01.416Z,991.10
2023-01-10T03:59:00.456Z,991.12
2023-01-10T04:00:00.430Z,991.10
2023-01-10T04:01:00.509Z,991.26
2023-01-10T04:02:00.571Z,991.23
2023-01-10T04:03:00.463Z,991.28
2023-01-10T04:04:00.429Z,991.29
2023-01-10T04:05:00.405Z,991.27
2023-01-10T04:06:00.375Z,991.26
2023-01-10T04:07:00.424Z,991.28
2023-01-10T04:08:00.359Z,991.31
2023-01-10T04:09:00.372Z,991.36
2023-01-10T04:10:00.348Z,991.30
2023-01-10T04:11:00.309Z,991.29
2023-01-10T04:12:00.335Z,991.35
2023-01-10T04:13:00.350Z,991.32
2023-01-10T04:14:00.311Z,991.35
2023-01-10T04:15:00.277Z,991.48
2023-01-10T04:16:00.319Z,991.45
2023-01-10T04:17:00.300Z,991.53
2023-01-10T04:18:00.243Z,991.44
2023-01-10T04:19:00.243Z,991.60
2023-01-10T04:20:00.247Z,991.48
2023-01-10T04:21:00.221Z,991.47
2023-01-10T04:22:00.224Z,991.53
2023-01-10T04:23:00.226Z,991.50
2023-01-10T04:24:00.167Z,991.58
2023-01-10T04:25:00.218Z,991.57
2023-01-10T04:26:00.178Z,991.59
2023-01-10T04:27:00.205Z,991.67
2023-01-10T04:28:00.183Z,991.65
2023-01-10T04:29:00.209Z,991.63
2023-01-10T04:30:00.154Z,991.74
2023-01-10T04:31:00.115Z,991.74
2023-01-10T04:32:00.119Z,991.73
2023-01-10T04:33:00.111Z,991.72
2023-01-10T04:34:00.129Z,991.78
2023-01-10T04:35:00.081Z,991.86
2023-01-10T04:36:00.133Z,991.84
2023-01-10T04:37:00.113Z,991.82
2023-01-10T04:38:00.059Z,991.83
2023-01-10T04:39:00.043Z,991.79
2023-01-10T04:40:00.041Z,991.79
2023-01-10T04:41:00.006Z,991.84
2023-01-10T04:42:00.014Z,991.91
2023-01-10T04:42:59.992Z,991.82
2023-01-10T04:44:00.005Z,991.94
2023-01-10T04:44:59.989Z,991.96
2023-01-10T04:46:00.003Z,991.91
2023-01-10T04:46:59.981Z,991.99
2023-01-10T04:48:00.002Z,991.95
2023-01-10T04:48:59.969Z,991.92
2023-01-10T04:49:59.957Z,992.00
2023-01-10T04:50:59.930Z,991.95
2023-01-10T04:51:59.930Z,991.95
2023-01-10T04:52:59.923Z,991.98
2023-01-10T04:53:59.881Z,991.99
2023-01-10T04:54:59.854Z,992.01
2023-01-10T04:55:59.871Z,992.00
2023-01-10T04:56:59.875Z,991.98
2023-01-10T04:57:59.883Z,992.06
2023-01-10T04:58:59.902Z,992.12
2023-01-10T04:59:59.824Z,992.18
2023-01-10T05:00:59.864Z,992.11
2023-01-10T05:01:59.880Z,992.29
2023-01-10T05:02:59.905Z,992.16
2023-01-10T05:04:00.790Z,992.19
2023-01-10T05:04:59.786Z,992.23
2023-01-10T05:05:59.754Z,992.22
2023-01-10T05:06:59.764Z,992.19
2023-01-10T05:07:59.800Z,992.23
2023-01-10T05:08:59.728Z,992.28
2023-01-10T05:09:59.739Z,992.27
2023-01-10T05:10:59.730Z,992.29
2023-01-10T05:11:59.708Z,992.25
2023-01-10T05:12:59.719Z,992.29
2023-01-10T05:13:59.750Z,992.23
2023-01-10T05:14:59.685Z,992.34
2023-01-10T05:15:59.650Z,992.26
2023-01-10T05:16:59.691Z,992.38
2023-01-10T05:17:59.655Z,992.38
2023-01-10T05:18:59.608Z,992.32
2023-01-10T05:19:59.633Z,992.39
2023-01-10T05:20:59.614Z,992.33
2023-01-10T05:21:59.626Z,992.38
2023-01-10T05:22:59.629Z,992.35
2023-01-10T05:23:59.601Z,992.28
2023-01-10T05:24:59.571Z,992.34
2023-01-10T05:25:59.527Z,992.34
2023-01-10T05:26:59.520Z,992.31
2023-01-10T05:27:59.550Z,992.43
2023-01-10T05:28:59.630Z,992.44
2023-01-10T05:29:59.517Z,992.48
2023-01-10T05:30:59.503Z,992.48
2023-01-10T05:31:59.523Z,992.40
2023-01-10T05:32:59.518Z,992.47
2023-01-10T05:33:59.487Z,992.46
2023-01-10T05:34:59.462Z,992.43
2023-01-10T05:35:59.466Z,992.46
2023-01-10T05:36:59.448Z,992.48
2023-01-10T05:37:59.507Z,992.50
2023-01-10T05:38:59.443Z,992.57
2023-01-10T05:39:59.392Z,992.63
2023-01-10T05:40:59.386Z,992.53
2023-01-10T05:41:59.437Z,992.64
2023-01-10T05:42:59.421Z,992.63
2023-01-10T05:43:59.386Z,992.66
2023-01-10T05:44:59.361Z,992.60
2023-01-10T05:45:59.537Z,992.72
2023-01-10T05:46:59.433Z,992.73
2023-01-10T05:47:59.322Z,992.72
2023-01-10T05:48:59.367Z,992.67
2023-01-10T05:49:59.363Z,992.77
2023-01-10T05:50:59.305Z,992.83
2023-01-10T05:51:59.393Z,992.91
2023-01-10T05:52:59.350Z,992.96
2023-01-10T05:53:59.370Z,992.89
2023-01-10T05:54:59.298Z,992.94
2023-01-10T05:55:59.357Z,992.98
2023-01-10T05:56:59.326Z,993.05
2023-01-10T05:57:59.289Z,993.04
2023-01-10T05:59:07.778Z,993.09
2023-01-10T06:00:01.580Z,993.10
2023-01-10T06:00:59.315Z,993.12
2023-01-10T06:01:59.241Z,993.13
2023-01-10T06:02:59.259Z,993.15
2023-01-10T06:03:59.260Z,993.14
2023-01-10T06:04:59.237Z,993.29
2023-01-10T06:05:59.218Z,993.35
2023-01-10T06:06:59.284Z,993.27
2023-01-10T06:07:59.150Z,993.24
2023-01-10T06:08:59.181Z,993.41
2023-01-10T06:09:59.135Z,993.30
2023-01-10T06:10:59.180Z,993.34
2023-01-10T06:11:59.071Z,993.32
2023-01-10T06:12:59.064Z,993.34
2023-01-10T06:13:59.030Z,993.33
2023-01-10T06:14:59.047Z,993.42
2023-01-10T06:15:59.038Z,993.44
2023-01-10T06:16:59.023Z,993.48
2023-01-10T06:17:59.018Z,993.45
2023-01-10T06:18:58.999Z,993.54
2023-01-10T06:19:59.992Z,993.52
2023-01-10T06:20:58.979Z,993.49
2023-01-10T06:21:59.010Z,993.60
2023-01-10T06:22:58.987Z,993.68
2023-01-10T06:23:58.998Z,993.73
2023-01-10T06:25:00.449Z,993.76
2023-01-10T06:25:58.920Z,993.73
2023-01-10T06:26:58.926Z,993.71
2023-01-10T06:27:58.892Z,993.75
2023-01-10T06:28:58.970Z,993.65
2023-01-10T06:29:59.014Z,993.77
2023-01-10T06:30:58.922Z,993.72
2023-01-10T06:31:58.849Z,993.78
2023-01-10T06:32:58.852Z,993.82
2023-01-10T06:33:58.884Z,993.88
2023-01-10T06:34:58.806Z,993.78
2023-01-10T06:35:58.836Z,993.87
2023-01-10T06:36:58.946Z,993.85
2023-01-10T06:37:58.804Z,993.79
2023-01-10T06:38:58.851Z,993.74
2023-01-10T06:39:58.796Z,993.84
2023-01-10T06:40:58.762Z,993.79
2023-01-10T06:41:58.784Z,993.87
2023-01-10T06:42:58.742Z,993.87
2023-01-10T06:43:58.763Z,993.94
2023-01-10T06:44:58.732Z,993.84
2023-01-10T06:45:59.805Z,993.86
2023-01-10T06:46:58.746Z,993.85
2023-01-10T06:47:58.695Z,993.91
2023-01-10T06:48:58.705Z,993.92
2023-01-10T06:49:58.685Z,993.89
2023-01-10T06:50:58.671Z,993.97
2023-01-10T06:51:58.671Z,994.05
2023-01-10T06:52:58.714Z,993.93
2023-01-10T06:53:58.697Z,994.00
2023-01-10T06:54:58.630Z,994.06
2023-01-10T06:55:58.660Z,994.01
2023-01-10T06:56:58.565Z,993.98
2023-01-10T06:57:58.602Z,994.07
2023-01-10T06:58:59.610Z,994.07
2023-01-10T06:59:58.569Z,994.19
2023-01-10T07:00:58.643Z,994.11
2023-01-10T07:01:58.688Z,994.17
2023-01-10T07:02:58.521Z,994.13
2023-01-10T07:03:58.610Z,994.17
2023-01-10T07:04:58.539Z,994.16
2023-01-10T07:05:58.514Z,994.14
2023-01-10T07:06:58.506Z,994.20
2023-01-10T07:07:58.504Z,994.23
2023-01-10T07:08:58.496Z,994.20
2023-01-10T07:09:58.491Z,994.33
2023-01-10T07:10:58.473Z,994.24
2023-01-10T07:11:58.430Z,994.25
2023-01-10T07:12:58.455Z,994.27
2023-01-10T07:13:58.423Z,994.30
2023-01-10T07:14:58.504Z,994.48
2023-01-10T07:15:58.492Z,994.42
2023-01-10T07:16:58.391Z,994.42
2023-01-10T07:17:58.420Z,994.42
2023-01-10T07:18:58.415Z,994.42
2023-01-10T07:19:58.363Z,994.43
2023-01-10T07:20:58.406Z,994.43
2023-01-10T07:21:58.451Z,994.50
2023-01-10T07:22:58.393Z,994.51
2023-01-10T07:23:58.336Z,994.55
2023-01-10T07:24:58.306Z,994.60
2023-01-10T07:25:58.386Z,994.59
2023-01-10T07:26:58.280Z,994.58
2023-01-10T07:27:58.340Z,994.54
2023-01-10T07:28:58.326Z,994.58
2023-01-10T07:29:58.346Z,994.61
2023-01-10T07:30:58.358Z,994.63
2023-01-10T07:31:58.282Z,994.60
2023-01-10T07:32:58.276Z,994.71
2023-01-10T07:33:58.272Z,994.68
2023-01-10T07:34:58.255Z,994.68
2023-01-10T07:35:58.234Z,994.72
2023-01-10T07:36:58.243Z,994.73
2023-01-10T07:37:58.207Z,994.68
2023-01-10T07:38:58.193Z,994.77
2023-01-10T07:39:58.221Z,994.78
2023-01-10T07:40:58.211Z,994.76
2023-01-10T07:41:58.205Z,994.76
2023-01-10T07:42:58.127Z,994.83
2023-01-10T07:43:58.092Z,994.88
2023-01-10T07:44:58.108Z,994.90
2023-01-10T07:45:58.152Z,994.88
2023-01-10T07:46:58.121Z,994.89
2023-01-10T07:47:58.096Z,994.83
2023-01-10T07:48:58.068Z,994.75
2023-01-10T07:49:58.084Z,994.89
2023-01-10T07:50:58.035Z,994.83
2023-01-10T07:51:58.036Z,994.87
2023-01-10T07:52:59.019Z,994.91
2023-01-10T07:53:58.027Z,994.86
2023-01-10T07:54:57.983Z,994.80
2023-01-10T07:55:57.983Z,994.75
2023-01-10T07:56:57.987Z,994.82
2023-01-10T07:57:57.953Z,994.69
2023-01-10T07:58:57.956Z,994.79
2023-01-10T07:59:57.961Z,994.95
2023-01-10T08:00:57.944Z,994.96
2023-01-10T08:01:57.947Z,994.91
2023-01-10T08:02:58.016Z,994.87
2023-01-10T08:03:57.892Z,994.98
2023-01-10T08:04:57.937Z,994.96
2023-01-10T08:05:57.864Z,994.92
2023-01-10T08:06:57.866Z,994.85
2023-01-10T08:07:57.838Z,994.92
2023-01-10T08:08:57.864Z,994.89
2023-01-10T08:09:57.851Z,994.96
2023-01-10T08:10:57.820Z,995.17
2023-01-10T08:11:57.814Z,995.14
2023-01-10T08:12:59.603Z,995.21
2023-01-10T08:13:59.799Z,995.26
2023-01-10T08:14:57.830Z,995.31
2023-01-10T08:15:57.921Z,995.30
2023-01-10T08:16:57.766Z,995.35
2023-01-10T08:17:57.750Z,995.43
2023-01-10T08:18:57.740Z,995.50
2023-01-10T08:19:57.738Z,995.40
2023-01-10T08:20:57.775Z,995.48
2023-01-10T08:21:57.713Z,995.39
2023-01-10T08:22:57.696Z,995.41
2023-01-10T08:23:57.687Z,995.44
2023-01-10T08:24:57.696Z,995.54
2023-01-10T08:25:57.710Z,995.47
2023-01-10T08:26:57.669Z,995.55
2023-01-10T08:27:57.684Z,995.51
2023-01-10T08:28:57.689Z,995.64
2023-01-10T08:29:57.641Z,995.54
2023-01-10T08:30:57.670Z,995.48
2023-01-10T08:31:57.628Z,995.51
2023-01-10T08:32:57.609Z,995.59
2023-01-10T08:33:57.605Z,995.54
2023-01-10T08:34:57.575Z,995.60
2023-01-10T08:35:57.580Z,995.55
2023-01-10T08:36:57.592Z,995.58
2023-01-10T08:37:57.567Z,995.48
2023-01-10T08:38:57.551Z,995.53
2023-01-10T08:39:57.557Z,995.58
2023-01-10T08:40:57.535Z,995.52
2023-01-10T08:41:57.521Z,995.57
2023-01-10T08:42:57.493Z,995.66
2023-01-10T08:43:57.488Z,995.69
2023-01-10T08:44:59.145Z,995.79
2023-01-10T08:45:57.490Z,995.81
2023-01-10T08:46:57.473Z,995.78
2023-01-10T08:47:57.457Z,995.80
2023-01-10T08:48:57.456Z,995.68
2023-01-10T08:49:57.387Z,995.62
2023-01-10T08:50:58.467Z,995.55
2023-01-10T08:51:57.389Z,995.50
2023-01-10T08:52:57.392Z,995.45
2023-01-10T08:53:57.393Z,995.46
2023-01-10T08:55:26.830Z,995.38
2023-01-10T08:59:38.089Z,995.55
2023-01-10T09:00:38.299Z,995.48
2023-01-10T09:01:38.265Z,995.42
2023-01-10T09:04:32.972Z,995.47
2023-01-10T09:06:31.176Z,995.44
2023-01-10T09:07:18.285Z,995.48
2023-01-10T09:08:19.401Z,995.48
2023-01-10T09:09:19.355Z,995.67
2023-01-10T09:10:19.917Z,995.62
2023-01-10T09:11:32.088Z,995.78
2023-01-10T09:12:18.668Z,995.78
2023-01-10T09:13:20.068Z,995.85
2023-01-10T09:14:19.230Z,995.74
2023-01-10T09:15:20.530Z,995.70
2023-01-10T09:16:20.098Z,995.74
2023-01-10T09:17:18.168Z,995.79
2023-01-10T09:18:20.578Z,995.91
2023-01-10T09:19:25.566Z,995.90
2023-01-10T09:22:10.638Z,995.81
2023-01-10T09:23:03.842Z,995.82
2023-01-10T09:23:56.297Z,995.82
2023-01-10T09:26:48.875Z,995.78
2023-01-10T09:29:15.079Z,995.86
2023-01-10T09:32:16.125Z,995.89
2023-01-10T09:33:15.579Z,995.94
2023-01-10T09:34:26.626Z,995.95
2023-01-10T09:35:15.598Z,995.89
2023-01-10T09:36:17.888Z,995.91
2023-01-10T09:37:17.038Z,996.00
2023-01-10T09:38:17.266Z,995.97
2023-01-10T09:39:16.987Z,995.94
2023-01-10T09:40:16.570Z,996.05
2023-01-10T09:41:17.033Z,995.96
2023-01-10T09:43:54.686Z,996.10
2023-01-10T09:44:54.353Z,996.02
2023-01-10T09:45:54.448Z,996.00
2023-01-10T09:46:54.232Z,995.99
2023-01-10T09:47:54.156Z,996.02
2023-01-10T09:48:54.159Z,996.09
2023-01-10T09:49:54.230Z,996.15
2023-01-10T09:50:54.976Z,996.07
2023-01-10T09:51:54.179Z,996.03
2023-01-10T09:52:54.312Z,996.06
2023-01-10T09:54:00.572Z,996.09
2023-01-10T09:54:57.999Z,995.99
2023-01-10T09:57:55.057Z,996.11
2023-01-10T09:58:54.082Z,996.19
2023-01-10T09:59:54.991Z,996.05
2023-01-10T10:00:54.108Z,996.06
2023-01-10T10:03:09.270Z,996.07
2023-01-10T10:04:03.722Z,996.02
2023-01-10T10:05:01.463Z,996.07
2023-01-10T10:06:03.788Z,996.05
2023-01-10T10:07:00.124Z,996.13
2023-01-10T10:07:54.056Z,996.28
2023-01-10T10:08:55.512Z,996.19
2023-01-10T10:09:57.768Z,996.03
2023-01-10T10:11:02.956Z,996.09
2023-01-10T10:12:04.161Z,996.16
2023-01-10T10:13:02.244Z,996.15
2023-01-10T10:14:01.848Z,996.14
2023-01-10T10:15:03.134Z,996.05
2023-01-10T10:16:00.006Z,995.97
2023-01-10T10:18:03.079Z,995.94
2023-01-10T10:18:53.827Z,995.99
2023-01-10T10:19:53.815Z,995.95
2023-01-10T10:20:53.806Z,995.98
2023-01-10T10:21:53.807Z,996.19
2023-01-10T10:22:53.785Z,995.94
2023-01-10T10:23:53.775Z,995.96
2023-01-10T10:24:53.780Z,996.08
2023-01-10T10:26:06.726Z,995.92
2023-01-10T10:26:54.769Z,996.03
2023-01-10T10:27:53.743Z,996.11
2023-01-10T10:28:55.455Z,995.93
2023-01-10T10:29:53.719Z,995.98
2023-01-10T10:30:53.705Z,996.01
2023-01-10T10:31:53.772Z,996.00
2023-01-10T10:32:53.713Z,996.12
2023-01-10T10:33:53.678Z,995.97
2023-01-10T10:34:53.674Z,996.18
2023-01-10T10:35:53.664Z,996.04
2023-01-10T10:36:53.664Z,996.16
2023-01-10T10:37:53.633Z,996.11
2023-01-10T10:38:53.629Z,996.01
2023-01-10T10:39:53.608Z,995.97
2023-01-10T10:40:53.594Z,996.02
2023-01-10T10:41:53.607Z,996.10
2023-01-10T10:42:53.571Z,996.06
2023-01-10T10:43:53.573Z,996.04
2023-01-10T10:44:53.557Z,996.10
2023-01-10T10:45:53.609Z,996.06
2023-01-10T10:46:53.541Z,996.06
2023-01-10T10:47:53.526Z,996.09
2023-01-10T10:48:53.533Z,996.12
2023-01-10T10:49:53.516Z,996.04
2023-01-10T10:50:53.496Z,996.08
2023-01-10T10:51:53.495Z,996.14
2023-01-10T10:52:53.481Z,996.22
2023-01-10T10:53:53.491Z,996.14
2023-01-10T10:54:53.453Z,996.17
2023-01-10T10:55:53.456Z,996.17
2023-01-10T10:56:53.440Z,996.09
2023-01-10T10:58:00.527Z,996.13
2023-01-10T10:58:54.408Z,996.22
2023-01-10T10:59:53.421Z,996.23
2023-01-10T11:00:53.454Z,996.14
2023-01-10T11:01:53.498Z,996.22
2023-01-10T11:02:53.372Z,996.26
2023-01-10T11:03:53.358Z,996.24
2023-01-10T11:04:53.403Z,996.23
2023-01-10T11:05:53.347Z,996.15
2023-01-10T11:06:53.345Z,996.19
2023-01-10T11:07:53.311Z,996.19
2023-01-10T11:08:53.307Z,996.16
2023-01-10T11:09:53.295Z,996.11
2023-01-10T11:10:53.288Z,996.11
2023-01-10T11:11:53.273Z,996.27
2023-01-10T11:12:53.273Z,996.20
2023-01-10T11:13:53.264Z,996.19
2023-01-10T11:14:53.238Z,996.18
2023-01-10T11:15:55.914Z,996.17
2023-01-10T11:16:53.218Z,996.16
2023-01-10T11:17:53.223Z,996.18
2023-01-10T11:18:53.192Z,996.25
2023-01-10T11:19:53.189Z,996.19
2023-01-10T11:20:53.175Z,996.21
2023-01-10T11:21:53.177Z,996.23
2023-01-10T11:22:53.160Z,996.22
2023-01-10T11:23:53.142Z,996.22
2023-01-10T11:24:53.130Z,996.31
2023-01-10T11:25:53.138Z,996.32
2023-01-10T11:26:53.121Z,996.26
2023-01-10T11:27:53.123Z,996.32
2023-01-10T11:28:53.087Z,996.27
2023-01-10T11:29:53.096Z,996.34
2023-01-10T11:30:53.075Z,996.37
2023-01-10T11:31:53.108Z,996.40
2023-01-10T11:32:53.101Z,996.33
2023-01-10T11:33:53.046Z,996.32
2023-01-10T11:34:53.034Z,996.36
2023-01-10T11:35:53.036Z,996.36
2023-01-10T11:36:53.009Z,996.34
2023-01-10T11:37:53.009Z,996.31
2023-01-10T11:38:53.020Z,996.34
2023-01-10T11:39:52.979Z,996.35
2023-01-10T11:40:52.966Z,996.42
2023-01-10T11:41:52.960Z,996.34
2023-01-10T11:42:52.977Z,996.30
2023-01-10T11:43:52.953Z,996.35
2023-01-10T11:44:52.930Z,996.33
2023-01-10T11:45:52.941Z,996.29
2023-01-10T11:46:52.911Z,996.36
2023-01-10T11:47:52.964Z,996.38
2023-01-10T11:49:06.201Z,996.43
2023-01-10T11:49:53.880Z,996.37
2023-01-10T11:50:52.874Z,996.41
2023-01-10T11:51:52.868Z,996.40
2023-01-10T11:52:52.876Z,996.38
2023-01-10T11:53:52.849Z,996.38
2023-01-10T11:54:52.827Z,996.39
2023-01-10T11:55:52.818Z,996.43
2023-01-10T11:56:52.802Z,996.45
2023-01-10T11:57:52.815Z,996.37
2023-01-10T11:58:52.786Z,996.43
2023-01-10T11:59:52.775Z,996.49
2023-01-10T12:00:52.807Z,996.44
2023-01-10T12:01:52.859Z,996.46
2023-01-10T12:02:52.763Z,996.44
2023-01-10T12:03:52.743Z,996.48
2023-01-10T12:04:53.194Z,996.42
2023-01-10T12:05:52.758Z,996.38
2023-01-10T12:06:52.706Z,996.41
2023-01-10T12:07:52.718Z,996.33
2023-01-10T12:08:52.764Z,996.35
2023-01-10T12:09:52.698Z,996.32
2023-01-10T12:10:52.665Z,996.19
2023-01-10T12:11:52.658Z,996.24
2023-01-10T12:12:52.652Z,996.29
2023-01-10T12:13:52.659Z,996.26
2023-01-10T12:14:52.625Z,996.19
2023-01-10T12:15:52.615Z,996.19
2023-01-10T12:16:52.638Z,996.24
2023-01-10T12:17:52.603Z,996.28
2023-01-10T12:18:52.625Z,996.18
2023-01-10T12:19:52.579Z,996.12
2023-01-10T12:20:52.568Z,996.12
2023-01-10T12:21:52.572Z,996.15
2023-01-10T12:22:52.547Z,996.14
2023-01-10T12:23:52.551Z,996.22
2023-01-10T12:24:52.547Z,996.19
2023-01-10T12:25:57.508Z,996.24
2023-01-10T12:26:53.501Z,996.07
2023-01-10T12:27:52.512Z,996.22
2023-01-10T12:28:52.509Z,996.12
2023-01-10T12:29:52.633Z,996.09
2023-01-10T12:30:52.469Z,996.14
2023-01-10T12:31:52.479Z,996.07
2023-01-10T12:32:52.450Z,996.06
2023-01-10T12:33:52.438Z,996.09
2023-01-10T12:34:52.442Z,996.07
2023-01-10T12:35:52.427Z,996.12
2023-01-10T12:36:52.406Z,996.20
2023-01-10T12:37:52.400Z,996.13
2023-01-10T12:38:52.390Z,996.14
2023-01-10T12:39:52.394Z,996.12
2023-01-10T12:40:52.361Z,996.10
2023-01-10T12:41:52.353Z,996.17
2023-01-10T12:42:52.340Z,996.19
2023-01-10T12:43:52.330Z,996.12
2023-01-10T12:44:52.334Z,996.12
2023-01-10T12:45:52.542Z,996.12
2023-01-10T12:47:06.673Z,996.21